Time,TemperatureF,DewpointF,PressureIn,WindDirection,WindDirectionDegrees,WindSpeedMPH,WindSpeedGustMPH,Humidity,HourlyPrecipIn,Conditions,Clouds,dailyrainin,SoftwareType,DateUTC
2013-01-19 00:03:00,20.4,6.0,30.25,SSE,153,8.0,17.0,53,0.00,,,0.00,weatherlink.com 1.10,2013-01-19 05:03:00,
2013-01-19 00:17:00,21.1,6.0,30.24,South,175,8.0,18.0,53,0.00,,,0.00,weatherlink.com 1.10,2013-01-19 05:17:00,
2013-01-19 00:33:00,22.3,7.0,30.24,SSW,202,10.0,16.0,52,0.00,,,0.00,weatherlink.com 1.10,2013-01-19 05:33:00,
2013-01-19 00:48:00,23.3,8.0,30.24,SSE,162,9.0,18.0,51,0.00,,,0.00,weatherlink.com 1.10,2013-01-19 05:48:00,
2013-01-19 01:03:00,23.5,7.0,30.23,SW,218,8.0,18.0,50,0.00,,,0.00,weatherlink.com 1.10,2013-01-19 06:03:00,
2013-01-19 01:18:00,23.5,7.0,30.23,SW,233,8.0,17.0,50,0.00,,,0.00,weatherlink.com 1.10,2013-01-19 06:18:00,
2013-01-19 01:33:00,23.9,8.0,30.23,South,190,12.0,19.0,50,0.00,,,0.00,weatherlink.com 1.10,2013-01-19 06:33:00,
2013-01-19 01:48:00,23.9,8.0,30.23,South,185,6.0,17.0,51,0.00,,,0.00,weatherlink.com 1.10,2013-01-19 06:48:00,
2013-01-19 02:03:00,24.0,8.0,30.22,WSW,257,7.0,18.0,51,0.00,,,0.00,weatherlink.com 1.10,2013-01-19 07:03:00,
2013-01-19 02:18:00,24.8,9.0,30.23,SSE,159,14.0,21.0,52,0.00,,,0.00,weatherlink.com 1.10,2013-01-19 07:18:00,
2013-01-19 02:33:00,25.2,11.0,30.22,South,175,6.0,13.0,55,0.00,,,0.00,weatherlink.com 1.10,2013-01-19 07:33:00,
2013-01-19 02:48:00,25.9,10.0,30.22,SSW,205,5.0,15.0,51,0.00,,,0.00,weatherlink.com 1.10,2013-01-19 07:48:00,
2013-01-19 03:03:00,25.2,11.0,30.21,SSW,208,9.0,11.0,55,0.00,,,0.00,weatherlink.com 1.10,2013-01-19 08:03:00,
2013-01-19 03:18:00,26.1,11.0,30.20,SSW,205,7.0,15.0,52,0.00,,,0.00,weatherlink.com 1.10,2013-01-19 08:18:00,
2013-01-19 03:33:00,26.5,12.0,30.19,WSW,258,6.0,12.0,54,0.00,,,0.00,weatherlink.com 1.10,2013-01-19 08:33:00,
2013-01-19 03:48:00,28.2,12.0,30.19,South,190,4.0,16.0,51,0.00,,,0.00,weatherlink.com 1.10,2013-01-19 08:48:00,
2013-01-19 04:03:00,25.8,13.0,30.17,West,279,1.0,10.0,58,0.00,,,0.00,weatherlink.com 1.10,2013-01-19 09:03:00,
2013-01-19 04:18:00,30.0,13.0,30.17,SSW,205,3.0,13.0,50,0.00,,,0.00,weatherlink.com 1.10,2013-01-19 09:18:00,
2013-01-19 04:33:00,30.8,14.0,30.16,SW,222,15.0,17.0,49,0.00,,,0.00,weatherlink.com 1.10,2013-01-19 09:33:00,
2013-01-19 04:48:00,30.0,13.0,30.16,SSW,205,5.0,11.0,49,0.00,,,0.00,weatherlink.com 1.10,2013-01-19 09:48:00,
2013-01-19 05:03:00,30.0,13.0,30.15,ENE,63,2.0,11.0,50,0.00,,,0.00,weatherlink.com 1.10,2013-01-19 10:03:00,
2013-01-19 05:18:00,30.8,13.0,30.15,WSW,256,4.0,17.0,48,0.00,,,0.00,weatherlink.com 1.10,2013-01-19 10:18:00,
2013-01-19 05:33:00,30.5,15.0,30.15,West,269,2.0,7.0,53,0.00,,,0.00,weatherlink.com 1.10,2013-01-19 10:33:00,
2013-01-19 05:48:00,28.9,14.0,30.15,SW,215,3.0,5.0,55,0.00,,,0.00,weatherlink.com 1.10,2013-01-19 10:48:00,
2013-01-19 06:03:00,28.2,16.0,30.15,SW,236,1.0,4.0,61,0.00,,,0.00,weatherlink.com 1.10,2013-01-19 11:03:00,
2013-01-19 07:49:00,-999.0,-99.9,30.13,North,-999,-999.0,-999.0,-999,0.00,,,0.00,weatherlink.com 1.10,2013-01-19 12:49:00,
2013-01-19 08:04:00,-999.0,-99.9,30.13,North,-999,-999.0,-999.0,-999,0.00,,,0.00,weatherlink.com 1.10,2013-01-19 13:04:00,
2013-01-19 08:19:00,32.5,14.0,30.12,West,273,5.0,9.0,46,0.00,,,0.00,weatherlink.com 1.10,2013-01-19 13:19:00,
2013-01-19 08:34:00,33.8,13.0,30.13,South,171,13.0,15.0,43,0.00,,,0.00,weatherlink.com 1.10,2013-01-19 13:34:00,
2013-01-19 08:49:00,34.4,14.0,30.13,NNE,19,2.0,18.0,43,0.00,,,0.00,weatherlink.com 1.10,2013-01-19 13:49:00,
2013-01-19 09:04:00,35.0,14.0,30.13,SE,124,2.0,18.0,42,0.00,,,0.00,weatherlink.com 1.10,2013-01-19 14:04:00,
2013-01-19 09:19:00,35.8,15.0,30.13,SSW,208,2.0,13.0,42,0.00,,,0.00,weatherlink.com 1.10,2013-01-19 14:19:00,
2013-01-19 09:34:00,36.7,15.0,30.12,SW,217,7.0,10.0,42,0.00,,,0.00,weatherlink.com 1.10,2013-01-19 14:34:00,
2013-01-19 09:49:00,37.2,15.0,30.12,WSW,238,5.0,12.0,41,0.00,,,0.00,weatherlink.com 1.10,2013-01-19 14:49:00,
2013-01-19 10:04:00,38.0,16.0,30.12,SSW,194,3.0,11.0,40,0.01,,,0.01,weatherlink.com 1.10,2013-01-19 15:04:00,
2013-01-19 10:19:00,38.3,16.0,30.11,SW,221,2.0,18.0,41,0.01,,,0.01,weatherlink.com 1.10,2013-01-19 15:19:00,
2013-01-19 10:34:00,39.0,17.0,30.10,WSW,241,7.0,13.0,41,0.02,,,0.02,weatherlink.com 1.10,2013-01-19 15:34:00,
2013-01-19 10:49:00,39.2,17.0,30.09,SSW,197,2.0,15.0,41,0.04,,,0.04,weatherlink.com 1.10,2013-01-19 15:49:00,
2013-01-19 11:04:00,40.4,18.0,30.08,South,182,2.0,7.0,41,0.04,,,0.05,weatherlink.com 1.10,2013-01-19 16:04:00,
2013-01-19 11:19:00,41.1,18.0,30.06,SW,215,3.0,9.0,40,0.05,,,0.06,weatherlink.com 1.10,2013-01-19 16:19:00,
2013-01-19 11:34:00,41.5,19.0,30.06,WSW,250,3.0,8.0,40,0.05,,,0.08,weatherlink.com 1.10,2013-01-19 16:34:00,
2013-01-19 11:49:00,41.0,20.0,30.05,SSW,205,2.0,10.0,44,0.05,,,0.09,weatherlink.com 1.10,2013-01-19 16:49:00,
2013-01-19 12:05:00,41.3,19.0,30.03,SW,234,6.0,11.0,41,0.05,,,0.10,weatherlink.com 1.10,2013-01-19 17:05:00,
2013-01-19 12:20:00,42.0,20.0,30.02,SW,229,2.0,15.0,42,0.05,,,0.11,weatherlink.com 1.10,2013-01-19 17:20:00,
2013-01-19 12:35:00,42.4,21.0,30.01,SSW,200,11.0,13.0,42,0.04,,,0.12,weatherlink.com 1.10,2013-01-19 17:35:00,
2013-01-19 12:50:00,43.2,21.0,30.01,NNE,25,6.0,11.0,41,0.03,,,0.12,weatherlink.com 1.10,2013-01-19 17:50:00,
2013-01-19 13:05:00,43.4,22.0,30.00,SSW,209,3.0,15.0,43,0.03,,,0.13,weatherlink.com 1.10,2013-01-19 18:05:00,
2013-01-19 13:20:00,43.9,23.0,30.00,South,172,4.0,14.0,44,0.03,,,0.14,weatherlink.com 1.10,2013-01-19 18:20:00,
2013-01-19 13:35:00,44.2,23.0,30.00,SSW,193,1.0,11.0,44,0.02,,,0.14,weatherlink.com 1.10,2013-01-19 18:35:00,
2013-01-19 13:50:00,44.2,23.0,29.99,SSW,201,7.0,17.0,44,0.02,,,0.14,weatherlink.com 1.10,2013-01-19 18:50:00,
2013-01-19 14:05:00,44.2,24.0,29.98,SSE,165,12.0,23.0,45,0.01,,,0.14,weatherlink.com 1.10,2013-01-19 19:05:00,
2013-01-19 14:20:00,44.6,25.0,29.98,NE,38,5.0,18.0,46,0.00,,,0.14,weatherlink.com 1.10,2013-01-19 19:20:00,
2013-01-19 14:50:00,44.1,25.0,29.97,South,178,6.0,15.0,47,0.00,,,0.14,weatherlink.com 1.10,2013-01-19 19:50:00,
2013-01-19 15:05:00,44.0,24.0,29.96,West,273,10.0,17.0,46,0.00,,,0.14,weatherlink.com 1.10,2013-01-19 20:05:00,
2013-01-19 15:35:00,42.2,24.0,29.96,South,180,7.0,10.0,48,0.00,,,0.14,weatherlink.com 1.10,2013-01-19 20:35:00,
2013-01-19 15:50:00,41.3,23.0,29.96,WSW,243,3.0,12.0,48,0.00,,,0.14,weatherlink.com 1.10,2013-01-19 20:50:00,
2013-01-19 16:05:00,40.4,22.0,29.96,WSW,241,5.0,12.0,48,0.00,,,0.14,weatherlink.com 1.10,2013-01-19 21:05:00,
2013-01-19 16:20:00,39.6,21.0,29.95,SW,229,11.0,13.0,48,0.00,,,0.14,weatherlink.com 1.10,2013-01-19 21:20:00,
2013-01-19 16:35:00,39.1,21.0,29.95,SE,144,6.0,18.0,49,0.00,,,0.14,weatherlink.com 1.10,2013-01-19 21:35:00,
2013-01-19 16:50:00,38.9,21.0,29.95,SSE,149,9.0,14.0,49,0.00,,,0.14,weatherlink.com 1.10,2013-01-19 21:50:00,
2013-01-19 17:05:00,39.0,21.0,29.95,SSW,207,4.0,11.0,48,0.00,,,0.14,weatherlink.com 1.10,2013-01-19 22:05:00,
2013-01-19 17:20:00,39.2,20.0,29.94,SW,221,2.0,9.0,47,0.00,,,0.14,weatherlink.com 1.10,2013-01-19 22:20:00,
2013-01-19 17:35:00,38.3,21.0,29.94,South,177,1.0,6.0,50,0.00,,,0.14,weatherlink.com 1.10,2013-01-19 22:35:00,
2013-01-19 17:50:00,37.8,21.0,29.94,South,184,2.0,6.0,50,0.00,,,0.14,weatherlink.com 1.10,2013-01-19 22:50:00,
2013-01-19 18:05:00,37.7,20.0,29.94,SSW,192,3.0,6.0,50,0.00,,,0.14,weatherlink.com 1.10,2013-01-19 23:05:00,
2013-01-19 18:20:00,37.6,21.0,29.93,SE,138,1.0,4.0,51,0.00,,,0.14,weatherlink.com 1.10,2013-01-19 23:20:00,
2013-01-19 18:35:00,37.8,19.0,29.93,WSW,246,3.0,8.0,47,0.00,,,0.14,weatherlink.com 1.10,2013-01-19 23:35:00,
2013-01-19 18:50:00,36.8,20.0,29.93,West,263,3.0,7.0,50,0.00,,,0.14,weatherlink.com 1.10,2013-01-19 23:50:00,
2013-01-19 19:05:00,36.5,21.0,29.93,SW,219,6.0,6.0,53,0.00,,,0.14,weatherlink.com 1.10,2013-01-20 00:05:00,
2013-01-19 19:20:00,36.8,20.0,29.92,SW,216,1.0,8.0,51,0.00,,,0.14,weatherlink.com 1.10,2013-01-20 00:20:00,
2013-01-19 19:35:00,36.4,19.0,29.92,ESE,103,1.0,14.0,50,0.00,,,0.14,weatherlink.com 1.10,2013-01-20 00:35:00,
2013-01-19 19:50:00,36.5,19.0,29.91,SE,144,4.0,9.0,49,0.00,,,0.14,weatherlink.com 1.10,2013-01-20 00:50:00,
2013-01-19 20:05:00,36.9,20.0,29.90,SSE,147,1.0,9.0,50,0.00,,,0.14,weatherlink.com 1.10,2013-01-20 01:05:00,
2013-01-19 20:20:00,37.1,21.0,29.90,SW,223,2.0,9.0,52,0.00,,,0.14,weatherlink.com 1.10,2013-01-20 01:20:00,
2013-01-19 20:35:00,37.0,21.0,29.89,SE,146,3.0,14.0,53,0.00,,,0.14,weatherlink.com 1.10,2013-01-20 01:35:00,
2013-01-19 21:05:00,37.1,21.0,29.87,South,171,4.0,10.0,53,0.00,,,0.14,weatherlink.com 1.10,2013-01-20 02:05:00,
2013-01-19 21:20:00,37.2,21.0,29.86,SE,128,6.0,9.0,53,0.00,,,0.14,weatherlink.com 1.10,2013-01-20 02:20:00,
2013-01-19 21:35:00,38.2,21.0,29.85,ESE,110,4.0,12.0,50,0.00,,,0.14,weatherlink.com 1.10,2013-01-20 02:35:00,
2013-01-19 21:50:00,38.8,21.0,29.83,South,185,2.0,16.0,49,0.00,,,0.14,weatherlink.com 1.10,2013-01-20 02:50:00,
2013-01-19 22:05:00,39.5,21.0,29.83,SW,225,4.0,15.0,47,0.00,,,0.14,weatherlink.com 1.10,2013-01-20 03:05:00,
2013-01-19 22:21:00,39.8,20.0,29.82,WSW,248,6.0,16.0,46,0.00,,,0.14,weatherlink.com 1.10,2013-01-20 03:21:00,
2013-01-19 23:06:00,40.6,22.0,29.79,South,170,6.0,17.0,47,0.00,,,0.14,weatherlink.com 1.10,2013-01-20 04:06:00,
2013-01-19 23:21:00,41.0,21.0,29.78,SW,230,3.0,17.0,45,0.00,,,0.14,weatherlink.com 1.10,2013-01-20 04:21:00,